createdAt,value
2022-10-27T00:00:45.987Z,101190.81
2022-10-27T00:03:15.946Z,101197.09
2022-10-27T00:05:44.794Z,101200.03
2022-10-27T00:08:16.963Z,101215.13
2022-10-27T00:10:45.330Z,101206.31
2022-10-27T00:13:14.536Z,101211.34
2022-10-27T00:15:42.949Z,101200.44
2022-10-27T00:18:12.267Z,101211.13
2022-10-27T00:20:39.977Z,101206.13
2022-10-27T00:23:07.710Z,101211.75
2022-10-27T00:25:36.837Z,101190.41
2022-10-27T00:28:04.680Z,101216.78
2022-10-27T00:30:32.416Z,101221.78
2022-10-27T00:33:00.322Z,101220.09
2022-10-27T00:35:28.056Z,101219.88
2022-10-27T00:37:55.792Z,101222.81
2022-10-27T00:40:23.577Z,101231.41
2022-10-27T00:42:52.700Z,101220.47
2022-10-27T00:45:20.630Z,101226.19
2022-10-27T00:47:49.421Z,101226.63
2022-10-27T00:50:21.066Z,101231.22
2022-10-27T00:52:52.729Z,101200.88
2022-10-27T00:55:25.274Z,101217.22
2022-10-27T00:57:58.156Z,101240.44
2022-10-27T01:00:26.333Z,101235.19
2022-10-27T01:02:54.328Z,101237.50
2022-10-27T01:05:24.601Z,101237.69
2022-10-27T01:07:56.036Z,101231.00
2022-10-27T01:10:24.412Z,101218.44
2022-10-27T01:12:52.595Z,101229.94
2022-10-27T01:15:24.055Z,101223.00
2022-10-27T01:17:57.409Z,101211.28
2022-10-27T01:20:43.366Z,101213.78
2022-10-27T01:23:24.143Z,101217.56
2022-10-27T01:26:15.637Z,101221.94
2022-10-27T01:29:15.721Z,101223.19
2022-10-27T01:31:51.325Z,101219.81
2022-10-27T01:34:23.700Z,101228.41
2022-10-27T01:36:55.547Z,101222.09
2022-10-27T01:39:30.166Z,101224.22
2022-10-27T01:42:04.170Z,101224.81
2022-10-27T01:44:36.417Z,101220.41
2022-10-27T01:47:06.330Z,101219.56
2022-10-27T01:49:36.922Z,101224.81
2022-10-27T01:52:06.616Z,101221.25
2022-10-27T01:54:39.858Z,101211.00
2022-10-27T01:57:24.952Z,101217.75
2022-10-27T02:00:04.367Z,101219.22
2022-10-27T02:02:40.400Z,101223.59
2022-10-27T02:05:13.688Z,101231.13
2022-10-27T02:07:55.460Z,101228.59
2022-10-27T02:10:27.004Z,101238.00
2022-10-27T02:12:57.097Z,101230.63
2022-10-27T02:15:32.273Z,101238.97
2022-10-27T02:18:06.195Z,101231.47
2022-10-27T02:20:38.058Z,101228.94
2022-10-27T02:23:08.832Z,101221.84
2022-10-27T02:25:43.325Z,101234.69
2022-10-27T02:28:16.389Z,101238.03
2022-10-27T02:33:16.884Z,101237.34
2022-10-27T02:35:47.832Z,101229.31
2022-10-27T02:38:16.639Z,101240.13
2022-10-27T02:40:44.484Z,101246.78
2022-10-27T02:43:12.186Z,101239.47
2022-10-27T02:45:39.930Z,101254.00
2022-10-27T02:48:07.688Z,101252.75
2022-10-27T02:50:36.821Z,101257.09
2022-10-27T02:53:04.561Z,101264.28
2022-10-27T02:55:32.323Z,101254.25
2022-10-27T02:58:00.119Z,101248.56
2022-10-27T03:02:55.663Z,101232.78
2022-10-27T03:05:23.472Z,101230.06
2022-10-27T03:07:52.547Z,101236.16
2022-10-27T03:10:20.315Z,101234.69
2022-10-27T03:12:48.609Z,101232.53
2022-10-27T03:15:17.293Z,101238.44
2022-10-27T03:17:46.528Z,101227.31
2022-10-27T03:20:15.948Z,101226.22
2022-10-27T03:22:43.974Z,101224.13
2022-10-27T03:25:15.032Z,101232.69
2022-10-27T03:27:44.601Z,101227.06
2022-10-27T03:30:16.018Z,101227.56
2022-10-27T03:32:47.426Z,101224.84
2022-10-27T03:35:15.723Z,101224.59
2022-10-27T03:37:43.475Z,101230.56
2022-10-27T03:40:13.263Z,101234.97
2022-10-27T03:42:42.555Z,101238.38
2022-10-27T03:45:11.668Z,101242.19
2022-10-27T03:47:39.536Z,101242.63
2022-10-27T03:50:08.717Z,101246.44
2022-10-27T03:52:36.650Z,101245.09
2022-10-27T03:55:04.677Z,101248.31
2022-10-27T03:57:33.816Z,101245.25
2022-10-27T04:00:01.664Z,101230.25
2022-10-27T04:02:29.477Z,101246.00
2022-10-27T04:04:57.760Z,101249.41
2022-10-27T04:07:25.534Z,101244.59
2022-10-27T04:09:53.317Z,101251.13
2022-10-27T04:12:21.084Z,101252.78
2022-10-27T04:14:51.005Z,101242.91
2022-10-27T04:17:19.069Z,101246.81
2022-10-27T04:19:46.820Z,101241.09
2022-10-27T04:22:14.644Z,101252.63
2022-10-27T04:24:42.421Z,101255.13
2022-10-27T04:27:10.488Z,101251.13
2022-10-27T04:29:38.235Z,101263.69
2022-10-27T04:32:07.452Z,101257.78
2022-10-27T04:34:35.180Z,101261.28
2022-10-27T04:37:02.900Z,101261.50
2022-10-27T04:39:30.748Z,101261.88
2022-10-27T04:41:58.530Z,101251.84
2022-10-27T04:44:26.715Z,101255.44
2022-10-27T04:46:54.450Z,101243.25
2022-10-27T04:49:23.611Z,101255.41
2022-10-27T04:51:51.428Z,101240.09
2022-10-27T04:54:19.152Z,101241.34
2022-10-27T04:56:47.008Z,101243.41
2022-10-27T04:59:15.015Z,101232.47
2022-10-27T05:01:42.799Z,101231.63
2022-10-27T05:04:10.717Z,101240.00
2022-10-27T05:06:39.889Z,101238.34
2022-10-27T05:09:07.812Z,101237.50
2022-10-27T05:11:35.586Z,101237.94
2022-10-27T05:14:03.513Z,101239.16
2022-10-27T05:16:31.315Z,101228.94
2022-10-27T05:18:59.135Z,101243.72
2022-10-27T05:21:26.941Z,101243.72
2022-10-27T05:23:56.177Z,101246.44
2022-10-27T05:26:24.058Z,101216.06
2022-10-27T05:28:51.835Z,101237.44
2022-10-27T05:31:19.513Z,101217.50
2022-10-27T05:33:47.328Z,101235.38
2022-10-27T05:36:15.202Z,101239.78
2022-10-27T05:38:43.075Z,101241.16
2022-10-27T05:41:12.508Z,101243.84
2022-10-27T05:43:42.618Z,101239.38
2022-10-27T05:46:10.872Z,101229.59
2022-10-27T05:48:38.878Z,101231.47
2022-10-27T05:51:08.043Z,101240.72
2022-10-27T05:53:35.875Z,101248.16
2022-10-27T05:56:03.611Z,101248.78
2022-10-27T05:58:32.889Z,101248.25
2022-10-27T06:01:00.785Z,101241.41
2022-10-27T06:03:28.765Z,101241.78
2022-10-27T06:05:56.647Z,101236.31
2022-10-27T06:08:25.124Z,101245.69
2022-10-27T06:10:52.949Z,101235.63
2022-10-27T06:13:20.809Z,101237.72
2022-10-27T06:15:50.024Z,101249.25
2022-10-27T06:18:17.977Z,101241.16
2022-10-27T06:20:45.785Z,101242.19
2022-10-27T06:23:13.720Z,101240.56
2022-10-27T06:25:42.151Z,101236.38
2022-10-27T06:28:10.096Z,101231.59
2022-10-27T06:30:37.849Z,101223.25
2022-10-27T06:33:06.957Z,101224.31
2022-10-27T06:35:38.864Z,101231.44
2022-10-27T06:38:06.780Z,101223.28
2022-10-27T06:40:34.612Z,101235.22
2022-10-27T06:43:06.586Z,101227.06
2022-10-27T06:45:35.247Z,101211.97
2022-10-27T06:48:03.155Z,101223.50
2022-10-27T06:50:32.382Z,101243.66
2022-10-27T06:53:01.262Z,101250.59
2022-10-27T06:55:29.372Z,101253.75
2022-10-27T06:57:57.250Z,101252.41
2022-10-27T07:00:25.824Z,101262.06
2022-10-27T07:02:53.842Z,101262.34
2022-10-27T07:05:22.227Z,101263.06
2022-10-27T07:07:53.174Z,101261.56
2022-10-27T07:10:22.330Z,101255.72
2022-10-27T07:12:55.021Z,101265.41
2022-10-27T07:15:23.598Z,101271.19
2022-10-27T07:17:58.688Z,101274.56
2022-10-27T07:20:27.972Z,101269.81
2022-10-27T07:22:57.788Z,101278.25
2022-10-27T07:25:25.877Z,101282.66
2022-10-27T07:27:55.221Z,101297.56
2022-10-27T07:30:24.889Z,101286.84
2022-10-27T07:32:52.828Z,101294.47
2022-10-27T07:35:20.619Z,101290.91
2022-10-27T07:37:49.020Z,101297.44
2022-10-27T07:40:20.719Z,101288.44
2022-10-27T07:42:50.169Z,101281.97
2022-10-27T07:45:20.426Z,101298.06
2022-10-27T07:47:49.754Z,101300.78
2022-10-27T07:50:18.890Z,101300.19
2022-10-27T07:52:48.656Z,101295.84
2022-10-27T07:55:19.338Z,101298.97
2022-10-27T07:57:47.250Z,101297.47
2022-10-27T08:00:17.372Z,101302.72
2022-10-27T08:02:45.928Z,101296.81
2022-10-27T08:05:13.667Z,101298.09
2022-10-27T08:07:42.129Z,101303.13
2022-10-27T08:10:11.082Z,101294.94
2022-10-27T08:12:44.242Z,101288.78
2022-10-27T08:15:13.041Z,101294.88
2022-10-27T08:17:41.207Z,101288.19
2022-10-27T08:20:12.805Z,101295.22
2022-10-27T08:22:40.531Z,101288.69
2022-10-27T08:25:10.196Z,101284.94
2022-10-27T08:27:38.341Z,101302.28
2022-10-27T08:30:09.087Z,101296.66
2022-10-27T08:32:36.846Z,101295.34
2022-10-27T08:35:04.887Z,101271.63
2022-10-27T08:37:32.665Z,101279.69
2022-10-27T08:40:00.531Z,101273.69
2022-10-27T08:42:40.790Z,101279.75
2022-10-27T08:45:14.349Z,101284.34
2022-10-27T08:47:43.253Z,101270.03
2022-10-27T08:50:15.526Z,101286.47
2022-10-27T08:52:49.918Z,101283.19
2022-10-27T08:55:26.197Z,101280.94
2022-10-27T08:58:00.899Z,101281.81
2022-10-27T09:00:35.271Z,101274.06
2022-10-27T09:03:23.656Z,101274.47
2022-10-27T09:06:00.719Z,101269.81
2022-10-27T09:08:36.864Z,101264.63
2022-10-27T09:11:17.788Z,101268.91
2022-10-27T09:14:04.667Z,101275.34
2022-10-27T09:16:40.137Z,101266.97
2022-10-27T09:19:14.079Z,101261.91
2022-10-27T09:21:44.566Z,101256.44
2022-10-27T09:24:15.218Z,101247.94
2022-10-27T09:26:46.804Z,101248.28
2022-10-27T09:29:20.554Z,101254.75
2022-10-27T09:31:55.394Z,101251.72
2022-10-27T09:34:27.417Z,101255.97
2022-10-27T09:36:56.084Z,101254.66
2022-10-27T09:39:24.595Z,101251.16
2022-10-27T09:41:53.288Z,101248.34
2022-10-27T09:44:28.324Z,101246.84
2022-10-27T09:46:58.102Z,101256.13
2022-10-27T09:49:34.382Z,101254.75
2022-10-27T09:52:07.794Z,101248.25
2022-10-27T09:54:39.198Z,101247.50
2022-10-27T09:57:09.363Z,101248.56
2022-10-27T09:59:38.955Z,101241.34
2022-10-27T10:02:25.648Z,101231.22
2022-10-27T10:04:54.142Z,101242.31
2022-10-27T10:07:35.952Z,101237.56
2022-10-27T10:10:07.282Z,101235.78
2022-10-27T10:12:35.130Z,101239.00
2022-10-27T10:15:20.903Z,101231.97
2022-10-27T10:17:56.039Z,101221.22
2022-10-27T10:20:32.730Z,101219.91
2022-10-27T10:23:02.562Z,101217.56
2022-10-27T10:25:33.103Z,101214.00
2022-10-27T10:28:03.859Z,101215.31
2022-10-27T10:30:35.288Z,101217.69
2022-10-27T10:33:06.734Z,101210.16
2022-10-27T10:35:43.604Z,101207.19
2022-10-27T10:38:29.108Z,101209.53
2022-10-27T10:41:02.821Z,101205.69
2022-10-27T10:43:31.085Z,101209.22
2022-10-27T10:45:59.526Z,101212.66
2022-10-27T10:48:35.988Z,101192.53
2022-10-27T10:51:04.288Z,101188.25
2022-10-27T10:53:34.477Z,101189.66
2022-10-27T10:56:05.613Z,101192.03
2022-10-27T10:58:37.069Z,101186.09
2022-10-27T11:01:07.799Z,101185.53
2022-10-27T11:03:43.466Z,101176.66
2022-10-27T11:06:19.108Z,101182.00
2022-10-27T11:08:57.653Z,101166.84
2022-10-27T11:11:28.876Z,101166.66
2022-10-27T11:14:01.646Z,101175.22
2022-10-27T11:16:32.996Z,101172.00
2022-10-27T11:19:06.221Z,101164.53
2022-10-27T11:21:40.293Z,101164.44
2022-10-27T11:24:15.796Z,101159.56
2022-10-27T11:26:53.643Z,101156.63
2022-10-27T11:29:27.341Z,101113.16
2022-10-27T11:32:03.033Z,101132.22
2022-10-27T11:34:39.693Z,101135.81
2022-10-27T11:37:12.642Z,101118.59
2022-10-27T11:39:48.480Z,101136.41
2022-10-27T11:42:28.230Z,101132.88
2022-10-27T11:45:06.135Z,101124.53
2022-10-27T11:47:40.700Z,101124.88
2022-10-27T11:50:14.847Z,101123.72
2022-10-27T11:52:46.264Z,101105.31
2022-10-27T11:55:18.411Z,101101.88
2022-10-27T11:57:54.632Z,101109.69
2022-10-27T12:00:24.546Z,101116.94
2022-10-27T12:03:15.042Z,101109.97
2022-10-27T12:05:50.434Z,101099.78
2022-10-27T12:11:09.293Z,101101.34
2022-10-27T12:13:44.734Z,101091.47
2022-10-27T12:16:19.514Z,101088.69
2022-10-27T12:18:52.930Z,101094.34
2022-10-27T12:21:27.606Z,101084.63
2022-10-27T12:24:01.940Z,101097.03
2022-10-27T12:26:36.858Z,101101.00
2022-10-27T12:29:08.281Z,101099.63
2022-10-27T12:31:42.261Z,101079.75
2022-10-27T12:34:14.775Z,101101.03
2022-10-27T12:36:50.654Z,101097.72
2022-10-27T12:39:26.819Z,101101.00
2022-10-27T12:42:05.769Z,101065.34
2022-10-27T12:44:41.324Z,101071.38
2022-10-27T12:47:24.776Z,101089.13
2022-10-27T12:50:08.084Z,101089.13
2022-10-27T12:52:48.236Z,101079.16
2022-10-27T12:55:27.340Z,101082.22
2022-10-27T12:58:06.684Z,101083.88
2022-10-27T13:00:46.124Z,101075.84
2022-10-27T13:03:39.311Z,101075.03
2022-10-27T13:06:25.998Z,101069.78
2022-10-27T13:09:14.032Z,101072.00
2022-10-27T13:11:57.182Z,101059.00
2022-10-27T13:14:49.725Z,101067.84
2022-10-27T13:17:28.586Z,101058.69
2022-10-27T13:20:05.264Z,101060.38
2022-10-27T13:22:42.068Z,101063.94
2022-10-27T13:25:20.821Z,101062.56
2022-10-27T13:27:56.074Z,101049.81
2022-10-27T13:30:26.009Z,101063.16
2022-10-27T13:32:56.296Z,101062.56
2022-10-27T13:35:35.142Z,101064.53
2022-10-27T13:38:24.866Z,101055.97
2022-10-27T13:40:56.835Z,101050.06
2022-10-27T13:43:48.069Z,101059.47
2022-10-27T13:46:18.157Z,101057.88
2022-10-27T13:48:50.338Z,101057.50
2022-10-27T13:51:49.222Z,101055.28
2022-10-27T13:54:56.518Z,101046.72
2022-10-27T13:57:55.415Z,101049.94
2022-10-27T14:00:28.172Z,101044.81
2022-10-27T14:03:21.508Z,101045.31
2022-10-27T14:05:50.687Z,101019.88
2022-10-27T14:08:21.820Z,101035.69
2022-10-27T14:10:51.119Z,101038.94
2022-10-27T14:13:24.914Z,101037.91
2022-10-27T14:16:00.856Z,101017.75
2022-10-27T14:18:31.816Z,101040.72
2022-10-27T14:21:04.292Z,101024.09
2022-10-27T14:23:34.291Z,101027.97
2022-10-27T14:26:23.246Z,101029.63
2022-10-27T14:28:53.561Z,101012.19
2022-10-27T14:31:24.088Z,101031.88
2022-10-27T14:33:53.278Z,101020.50
2022-10-27T14:36:25.603Z,101009.50
2022-10-27T14:38:59.642Z,101031.03
2022-10-27T14:41:33.097Z,101018.56
2022-10-27T14:44:05.496Z,101011.91
2022-10-27T14:46:41.004Z,101006.66
2022-10-27T14:49:15.701Z,101032.09
2022-10-27T14:51:47.106Z,100996.69
2022-10-27T14:54:19.292Z,101011.25
2022-10-27T14:56:47.416Z,101017.25
2022-10-27T14:59:22.474Z,101031.47
2022-10-27T15:01:50.970Z,101025.53
2022-10-27T15:04:22.948Z,101017.88
2022-10-27T15:06:53.238Z,101024.59
2022-10-27T15:09:31.673Z,101013.84
2022-10-27T15:12:02.887Z,101019.56
2022-10-27T15:14:35.259Z,100990.03
2022-10-27T15:17:03.554Z,101007.38
2022-10-27T15:19:31.688Z,100998.19
2022-10-27T15:22:21.384Z,101018.16
2022-10-27T15:24:50.274Z,101016.00
2022-10-27T15:27:22.101Z,101021.66
2022-10-27T15:29:52.130Z,100993.13
2022-10-27T15:32:22.108Z,101015.75
2022-10-27T15:34:50.693Z,101001.44
2022-10-27T15:37:33.735Z,101029.13
2022-10-27T15:40:31.069Z,101026.38
2022-10-27T15:43:00.244Z,100989.84
2022-10-27T15:45:37.615Z,101026.56
2022-10-27T15:48:06.115Z,101028.75
2022-10-27T15:50:37.450Z,101025.16
2022-10-27T15:53:18.377Z,101018.50
2022-10-27T15:55:58.233Z,101001.78
2022-10-27T15:58:31.722Z,101007.63
2022-10-27T16:01:09.237Z,101027.38
2022-10-27T16:03:45.507Z,101030.78
2022-10-27T16:06:24.198Z,101030.34
2022-10-27T16:08:54.790Z,101042.00
2022-10-27T16:11:23.846Z,101036.59
2022-10-27T16:13:55.584Z,101038.13
2022-10-27T16:16:24.621Z,101029.53
2022-10-27T16:18:53.071Z,101028.78
2022-10-27T16:21:24.844Z,101009.91
2022-10-27T16:23:54.733Z,100980.09
2022-10-27T16:26:27.728Z,101045.34
2022-10-27T16:29:00.802Z,101018.41
2022-10-27T16:31:30.504Z,101037.03
2022-10-27T16:33:59.290Z,101019.25
2022-10-27T16:36:27.519Z,101035.03
2022-10-27T16:38:56.745Z,101010.88
2022-10-27T16:41:28.456Z,101034.44
2022-10-27T16:43:56.872Z,101043.75
2022-10-27T16:46:24.864Z,101022.19
2022-10-27T16:48:53.090Z,101017.19
2022-10-27T16:51:21.207Z,101034.66
2022-10-27T16:53:49.719Z,101039.34
2022-10-27T16:56:19.128Z,101044.94
2022-10-27T16:58:47.146Z,101046.50
2022-10-27T17:01:17.343Z,101044.19
2022-10-27T17:03:45.576Z,101048.25
2022-10-27T17:06:16.790Z,101044.66
2022-10-27T17:08:46.609Z,101051.59
2022-10-27T17:11:18.932Z,101031.09
2022-10-27T17:13:48.847Z,101030.78
2022-10-27T17:16:18.480Z,101049.66
2022-10-27T17:18:47.693Z,101043.03
2022-10-27T17:21:17.520Z,101021.84
2022-10-27T17:23:45.852Z,101050.94
2022-10-27T17:26:15.205Z,101049.44
2022-10-27T17:28:46.421Z,101053.84
2022-10-27T17:31:20.958Z,101051.28
2022-10-27T17:33:53.749Z,101040.13
2022-10-27T17:36:21.822Z,101050.34
2022-10-27T17:38:50.094Z,101053.75
2022-10-27T17:41:17.957Z,101039.13
2022-10-27T17:43:47.082Z,101051.63
2022-10-27T17:46:18.051Z,101070.41
2022-10-27T17:48:47.668Z,101055.94
2022-10-27T17:51:17.823Z,101069.41
2022-10-27T17:53:49.170Z,101065.31
2022-10-27T17:56:19.699Z,101065.91
2022-10-27T17:58:49.581Z,101053.19
2022-10-27T18:01:21.600Z,101057.56
2022-10-27T18:03:51.734Z,101062.25
2022-10-27T18:06:21.350Z,101059.41
2022-10-27T18:08:53.747Z,101065.75
2022-10-27T18:11:24.176Z,101059.00
2022-10-27T18:13:55.260Z,101061.41
2022-10-27T18:16:27.676Z,101066.56
2022-10-27T18:18:59.089Z,101070.13
2022-10-27T18:21:27.958Z,101060.84
2022-10-27T18:23:58.939Z,101067.81
2022-10-27T18:26:28.177Z,101063.91
2022-10-27T18:28:57.047Z,101038.16
2022-10-27T18:31:28.943Z,101070.56
2022-10-27T18:33:58.031Z,101066.63
2022-10-27T18:36:30.574Z,101070.44
2022-10-27T18:39:00.976Z,101070.97
2022-10-27T18:41:38.734Z,101069.75
2022-10-27T18:44:18.150Z,101048.34
2022-10-27T18:46:58.296Z,101029.16
2022-10-27T18:49:46.863Z,101072.22
2022-10-27T18:52:17.974Z,101087.06
2022-10-27T18:54:47.102Z,101061.94
2022-10-27T18:57:15.069Z,101080.28
2022-10-27T18:59:43.388Z,101068.72
2022-10-27T19:02:13.857Z,101065.50
2022-10-27T19:04:41.942Z,101065.56
2022-10-27T19:07:11.653Z,101069.50
2022-10-27T19:09:39.914Z,101072.09
2022-10-27T19:12:11.374Z,101072.34
2022-10-27T19:14:39.393Z,101050.19
2022-10-27T19:17:07.300Z,101043.78
2022-10-27T19:19:36.545Z,101059.53
2022-10-27T19:22:04.714Z,101066.94
2022-10-27T19:24:32.800Z,101057.66
2022-10-27T19:27:03.615Z,101060.66
2022-10-27T19:29:31.668Z,101057.28
2022-10-27T19:31:59.791Z,101062.06
2022-10-27T19:34:27.648Z,101053.59
2022-10-27T19:36:56.796Z,101068.88
2022-10-27T19:39:25.687Z,101071.66
2022-10-27T19:41:54.830Z,101050.69
2022-10-27T19:44:23.882Z,101039.97
2022-10-27T19:46:51.753Z,101060.16
2022-10-27T19:49:20.015Z,101063.06
2022-10-27T19:51:47.880Z,101023.69
2022-10-27T19:54:19.594Z,101067.56
2022-10-27T19:56:48.547Z,101077.53
2022-10-27T19:59:17.689Z,101080.72
2022-10-27T20:01:50.389Z,101072.91
2022-10-27T20:04:20.903Z,101031.38
2022-10-27T20:06:48.728Z,101079.66
2022-10-27T20:09:20.563Z,101083.31
2022-10-27T20:11:49.279Z,101066.81
2022-10-27T20:14:19.809Z,101067.66
2022-10-27T20:16:48.305Z,101081.56
2022-10-27T20:19:21.611Z,101077.78
2022-10-27T20:21:50.675Z,101070.22
2022-10-27T20:24:22.772Z,101077.72
2022-10-27T20:29:22.829Z,101077.25
2022-10-27T20:31:55.469Z,101083.50
2022-10-27T20:34:23.381Z,101076.22
2022-10-27T20:36:51.222Z,101076.94
2022-10-27T20:39:24.346Z,101076.03
2022-10-27T20:41:52.701Z,101080.94
2022-10-27T20:44:20.540Z,101095.72
2022-10-27T20:46:48.869Z,101079.75
2022-10-27T20:49:16.773Z,101091.19
2022-10-27T20:51:44.895Z,101061.25
2022-10-27T20:54:13.808Z,101055.44
2022-10-27T20:56:43.283Z,101062.09
2022-10-27T20:59:11.153Z,101071.75
2022-10-27T21:01:40.587Z,101077.91
2022-10-27T21:04:11.345Z,101074.91
2022-10-27T21:06:42.439Z,101071.06
2022-10-27T21:09:12.817Z,101066.22
2022-10-27T21:11:41.670Z,101075.53
2022-10-27T21:14:12.076Z,101066.84
2022-10-27T21:16:40.505Z,101079.56
2022-10-27T21:19:10.026Z,101082.84
2022-10-27T21:21:39.215Z,101079.38
2022-10-27T21:24:10.852Z,101070.03
2022-10-27T21:26:41.243Z,101067.28
2022-10-27T21:29:11.876Z,101083.88
2022-10-27T21:31:40.704Z,101080.72
2022-10-27T21:34:09.137Z,101084.97
2022-10-27T21:36:37.359Z,101081.38
2022-10-27T21:39:07.167Z,101071.56
2022-10-27T21:41:35.776Z,101079.47
2022-10-27T21:44:03.873Z,101081.72
2022-10-27T21:46:33.329Z,101083.28
2022-10-27T21:49:02.534Z,101083.47
2022-10-27T21:51:31.283Z,101087.81
2022-10-27T21:54:01.793Z,101064.13
2022-10-27T21:56:30.811Z,101066.94
2022-10-27T21:58:59.121Z,101078.53
2022-10-27T22:01:27.169Z,101086.97
2022-10-27T22:03:57.233Z,101080.97
2022-10-27T22:06:27.412Z,101083.19
2022-10-27T22:08:55.594Z,101035.06
2022-10-27T22:11:25.210Z,101076.66
2022-10-27T22:13:53.408Z,101081.91
2022-10-27T22:16:23.346Z,101051.22
2022-10-27T22:18:53.798Z,101051.44
2022-10-27T22:21:23.617Z,101056.03
2022-10-27T22:23:51.787Z,101067.84
2022-10-27T22:26:21.380Z,101078.72
2022-10-27T22:28:53.587Z,101081.16
2022-10-27T22:31:22.872Z,101067.09
2022-10-27T22:33:51.992Z,101045.13
2022-10-27T22:36:21.377Z,101076.19
2022-10-27T22:38:55.039Z,101077.03
2022-10-27T22:41:23.451Z,101043.94
2022-10-27T22:43:51.711Z,101041.88
2022-10-27T22:46:21.895Z,101047.03
2022-10-27T22:48:50.085Z,101063.63
2022-10-27T22:51:20.107Z,101050.50
2022-10-27T22:53:48.763Z,101072.88
2022-10-27T22:56:19.584Z,101071.41
2022-10-27T22:58:48.985Z,101049.34
2022-10-27T23:01:19.369Z,101073.34
2022-10-27T23:03:51.053Z,101067.50
2022-10-27T23:06:19.414Z,101031.34
2022-10-27T23:08:47.591Z,101067.25
2022-10-27T23:11:15.505Z,101071.81
2022-10-27T23:13:44.801Z,101030.50
2022-10-27T23:16:12.626Z,101080.88
2022-10-27T23:18:41.159Z,101079.44
2022-10-27T23:21:13.601Z,101082.34
2022-10-27T23:23:43.241Z,101086.38
2022-10-27T23:26:17.855Z,101078.19
2022-10-27T23:28:48.950Z,101090.84
2022-10-27T23:31:16.828Z,101080.81
2022-10-27T23:33:44.719Z,101052.41
2022-10-27T23:36:13.291Z,101073.91
2022-10-27T23:38:41.070Z,101073.06
2022-10-27T23:41:10.471Z,101078.78
2022-10-27T23:43:38.645Z,101070.50
2022-10-27T23:46:10.973Z,101078.00
2022-10-27T23:48:39.159Z,101066.19
2022-10-27T23:51:07.314Z,101066.63
2022-10-27T23:53:35.147Z,101081.25
2022-10-27T23:56:04.783Z,101077.84
2022-10-27T23:58:34.447Z,101073.22
